Time;durP1;ratioP1;P1;durP2;ratioP2;P2;SDS_P1;SDS_P2;PMS_P1;PMS_P2;Temp;Humidity;BMP_temperature;BMP_pressure;BME280_temperature;BME280_humidity;BME280_pressure;Samples;Min_cycle;Max_cycle;Signal;HPM_P1;HPM_P2
2021/12/29 00:01:43;;;;;;;13.23;2.88;;;11.60;86.20;;;;;;6255216;28;20528;-78
2021/12/29 00:04:45;;;;;;;10.98;1.60;;;11.70;86.50;;;;;;6249593;28;20474;-79
2021/12/29 00:07:47;;;;;;;10.05;2.00;;;11.70;86.90;;;;;;6250378;28;20487;-78
2021/12/29 00:10:54;;;;;;;13.77;1.55;;;11.70;86.40;;;;;;6250649;28;20049;-78
2021/12/29 00:13:58;;;;;;;12.32;2.15;;;11.70;86.50;;;;;;6255135;28;20049;-79
2021/12/29 00:17:00;;;;;;;8.13;2.03;;;11.70;86.30;;;;;;6273973;28;20052;-79
2021/12/29 00:20:02;;;;;;;44.67;3.83;;;11.70;86.50;;;;;;6275106;28;20120;-78
2021/12/29 00:23:07;;;;;;;14.18;1.77;;;11.70;87.00;;;;;;6274726;28;20048;-79
2021/12/29 00:26:11;;;;;;;13.80;2.38;;;11.70;87.00;;;;;;6269983;28;20045;-79
2021/12/29 00:29:15;;;;;;;23.08;1.98;;;11.60;87.90;;;;;;6274032;28;20045;-79
2021/12/29 00:32:16;;;;;;;13.77;2.22;;;11.60;87.50;;;;;;6278851;28;20047;-78
2021/12/29 00:35:18;;;;;;;9.82;1.75;;;11.50;87.30;;;;;;6268558;28;20052;-79
2021/12/29 00:38:20;;;;;;;9.30;1.75;;;11.50;87.50;;;;;;6254456;28;20216;-79
2021/12/29 00:41:22;;;;;;;6.22;1.35;;;11.50;87.60;;;;;;6253556;28;20038;-78
2021/12/29 00:44:26;;;;;;;14.73;2.55;;;11.50;87.80;;;;;;6254508;28;20124;-77
2021/12/29 00:47:30;;;;;;;11.00;0.95;;;11.40;87.50;;;;;;6253861;28;20054;-79
2021/12/29 00:50:33;;;;;;;14.70;1.63;;;11.40;87.80;;;;;;6253991;28;20060;-78
2021/12/29 00:53:35;;;;;;;9.23;1.95;;;11.40;87.90;;;;;;6252427;28;20052;-79
2021/12/29 00:56:38;;;;;;;14.68;1.55;;;11.40;87.80;;;;;;6253674;28;20634;-78
2021/12/29 00:59:41;;;;;;;11.10;2.13;;;11.40;87.80;;;;;;6257416;28;20053;-78
2021/12/29 01:02:43;;;;;;;5.35;1.02;;;11.40;88.00;;;;;;6277964;28;20052;-78
2021/12/29 01:05:45;;;;;;;7.22;1.83;;;11.40;87.90;;;;;;6276592;28;20442;-79
2021/12/29 01:08:47;;;;;;;13.23;3.75;;;11.40;87.90;;;;;;6272167;28;20529;-79
2021/12/29 01:11:50;;;;;;;8.65;1.45;;;11.40;88.10;;;;;;6277792;28;20056;-79
2021/12/29 01:14:55;;;;;;;10.52;1.50;;;11.40;88.40;;;;;;6277587;28;20576;-78
2021/12/29 01:18:01;;;;;;;12.52;2.88;;;11.30;88.60;;;;;;6276932;28;20052;-79
2021/12/29 01:21:04;;;;;;;12.15;0.98;;;11.40;89.10;;;;;;6277752;28;20051;-79
2021/12/29 01:24:07;;;;;;;10.48;1.30;;;11.30;89.00;;;;;;6277414;28;20048;-78
2021/12/29 01:27:08;;;;;;;10.50;1.48;;;11.30;89.10;;;;;;6277847;28;20049;-79
2021/12/29 01:30:12;;;;;;;11.85;1.33;;;11.30;88.80;;;;;;6277365;28;20045;-78
2021/12/29 01:33:14;;;;;;;9.43;0.85;;;11.30;88.90;;;;;;6277084;28;20124;-79
2021/12/29 01:36:16;;;;;;;9.60;2.08;;;11.30;88.90;;;;;;6277181;28;20514;-79
2021/12/29 01:39:20;;;;;;;12.88;1.50;;;11.30;89.50;;;;;;6277617;28;20107;-79
2021/12/29 01:42:22;;;;;;;6.50;1.80;;;11.30;88.90;;;;;;6277511;28;20300;-78
2021/12/29 01:45:26;;;;;;;7.70;1.50;;;11.30;88.80;;;;;;6282776;28;20127;-78
2021/12/29 01:48:28;;;;;;;7.38;1.27;;;11.40;88.80;;;;;;6280602;28;20091;-78
2021/12/29 01:51:30;;;;;;;6.93;0.90;;;11.30;88.50;;;;;;6276457;28;20045;-79
2021/12/29 01:54:35;;;;;;;9.07;1.95;;;11.30;88.50;;;;;;6276760;28;20059;-78
2021/12/29 01:57:38;;;;;;;13.48;2.15;;;11.30;88.90;;;;;;6276324;28;20049;-79
2021/12/29 02:00:41;;;;;;;9.77;1.17;;;11.30;89.00;;;;;;6272900;28;20394;-78
2021/12/29 02:03:43;;;;;;;6.93;1.40;;;11.30;89.20;;;;;;6274520;28;20048;-78
2021/12/29 02:06:45;;;;;;;8.27;1.35;;;11.20;89.20;;;;;;6275851;28;20049;-78
2021/12/29 02:09:47;;;;;;;5.70;1.40;;;11.20;89.70;;;;;;6276341;28;20521;-80
2021/12/29 02:12:49;;;;;;;7.75;0.75;;;11.20;89.50;;;;;;6277389;28;20041;-78
2021/12/29 02:15:52;;;;;;;5.00;0.80;;;11.30;89.50;;;;;;6276379;28;20041;-79
2021/12/29 02:18:54;;;;;;;17.20;1.65;;;11.30;89.60;;;;;;6276217;28;20122;-78
2021/12/29 02:22:05;;;;;;;6.38;2.65;;;11.20;89.60;;;;;;6275218;28;20041;-78
2021/12/29 02:25:22;;;;;;;13.70;1.23;;;11.20;89.80;;;;;;6275107;28;20049;-78
2021/12/29 02:28:28;;;;;;;12.68;1.25;;;11.20;90.00;;;;;;6275845;28;20048;-79
2021/12/29 02:31:31;;;;;;;17.50;1.88;;;11.20;90.00;;;;;;6276322;28;20523;-79
2021/12/29 02:34:33;;;;;;;11.18;1.77;;;11.30;90.10;;;;;;6275259;28;20057;-78
2021/12/29 02:37:37;;;;;;;4.68;1.05;;;11.30;90.00;;;;;;6275204;28;20044;-78
2021/12/29 02:40:39;;;;;;;7.65;1.25;;;11.30;89.80;;;;;;6275638;28;20052;-78
2021/12/29 02:43:43;;;;;;;7.60;1.02;;;11.30;89.90;;;;;;6275284;28;20055;-78
2021/12/29 02:46:46;;;;;;;11.98;2.35;;;11.30;89.70;;;;;;6275339;28;20103;-78
2021/12/29 02:49:48;;;;;;;6.72;0.90;;;11.20;89.70;;;;;;6275025;28;20048;-78
2021/12/29 02:52:51;;;;;;;7.13;1.17;;;11.30;89.50;;;;;;6274292;28;20053;-79
2021/12/29 02:55:54;;;;;;;14.25;1.25;;;11.30;89.30;;;;;;6274313;28;20051;-78
2021/12/29 02:58:56;;;;;;;6.95;1.33;;;11.30;89.40;;;;;;6276021;28;20056;-78
2021/12/29 03:01:58;;;;;;;7.97;1.00;;;11.20;89.30;;;;;;6274675;28;20047;-78
2021/12/29 03:05:00;;;;;;;9.15;1.33;;;11.30;90.00;;;;;;6274167;28;20045;-78
2021/12/29 03:08:05;;;;;;;4.85;0.60;;;11.20;89.70;;;;;;6275742;28;20045;-78
2021/12/29 03:11:08;;;;;;;11.98;0.90;;;11.10;89.90;;;;;;6275723;28;20048;-79
2021/12/29 03:14:11;;;;;;;2.45;0.90;;;11.00;90.20;;;;;;6274538;28;20450;-78
2021/12/29 03:17:12;;;;;;;9.95;1.20;;;10.90;90.60;;;;;;6274929;28;20049;-78
2021/12/29 03:20:14;;;;;;;0.80;0.40;;;10.90;90.70;;;;;;6274709;28;20083;-78
2021/12/29 03:23:18;;;;;;;6.10;0.93;;;10.90;90.90;;;;;;6275925;28;20052;-78
2021/12/29 03:26:20;;;;;;;3.15;0.60;;;10.90;91.00;;;;;;6274284;28;20053;-78
2021/12/29 03:29:22;;;;;;;3.78;0.60;;;10.80;91.20;;;;;;6274280;28;20695;-79
2021/12/29 03:32:37;;;;;;;2.88;0.82;;;10.80;91.20;;;;;;6275088;28;20037;-78
2021/12/29 03:35:41;;;;;;;4.43;0.40;;;10.80;91.30;;;;;;6274140;28;20049;-78
2021/12/29 03:38:45;;;;;;;5.93;0.85;;;10.80;91.50;;;;;;6274769;28;20524;-79
2021/12/29 03:41:47;;;;;;;10.38;2.15;;;10.80;91.60;;;;;;6274786;28;20124;-77
2021/12/29 03:44:49;;;;;;;7.80;0.90;;;10.80;91.60;;;;;;6274622;28;20171;-78
2021/12/29 03:47:51;;;;;;;11.48;0.80;;;10.90;91.60;;;;;;6274725;28;20104;-78
2021/12/29 03:50:53;;;;;;;5.07;0.95;;;10.90;91.50;;;;;;6274005;28;20426;-78
2021/12/29 03:53:56;;;;;;;7.30;0.82;;;11.00;91.60;;;;;;6275104;28;20047;-78
2021/12/29 03:57:00;;;;;;;3.00;0.73;;;11.00;91.40;;;;;;6274788;28;20056;-78
2021/12/29 04:00:04;;;;;;;8.05;0.88;;;11.00;91.50;;;;;;6274777;28;20072;-78
2021/12/29 04:03:06;;;;;;;2.92;0.68;;;10.90;91.60;;;;;;6269600;28;20043;-78
2021/12/29 04:06:08;;;;;;;0.85;0.30;;;11.00;91.50;;;;;;6252051;28;20056;-79
2021/12/29 04:09:11;;;;;;;4.50;0.60;;;10.90;91.50;;;;;;6255743;28;20183;-79
2021/12/29 04:12:13;;;;;;;12.07;0.73;;;10.90;91.60;;;;;;6255373;28;20045;-79
2021/12/29 04:15:16;;;;;;;4.70;0.57;;;10.90;91.70;;;;;;6254899;28;20050;-79
2021/12/29 04:18:26;;;;;;;1.83;0.40;;;10.80;91.70;;;;;;6255520;28;20052;-79
2021/12/29 04:21:28;;;;;;;8.02;1.13;;;10.80;91.80;;;;;;6254975;28;20042;-79
2021/12/29 04:24:31;;;;;;;5.68;0.60;;;10.90;91.70;;;;;;6254459;28;20068;-79
2021/12/29 04:27:33;;;;;;;6.20;0.70;;;10.90;91.80;;;;;;6253437;28;20141;-79
2021/12/29 04:30:35;;;;;;;5.75;0.63;;;10.80;91.80;;;;;;6254659;28;20412;-78
2021/12/29 04:33:38;;;;;;;6.13;0.60;;;10.80;92.00;;;;;;6253539;28;20053;-79
2021/12/29 04:36:40;;;;;;;7.40;1.33;;;10.70;92.10;;;;;;6253953;28;20053;-78
2021/12/29 04:39:43;;;;;;;7.07;1.90;;;10.80;92.20;;;;;;6253313;28;20120;-78
2021/12/29 04:42:45;;;;;;;4.65;0.82;;;10.80;92.20;;;;;;6254184;28;20411;-78
2021/12/29 04:45:47;;;;;;;7.32;1.38;;;10.90;92.40;;;;;;6253223;28;20146;-78
2021/12/29 04:48:52;;;;;;;9.05;1.15;;;10.90;92.40;;;;;;6253980;28;20049;-79
2021/12/29 04:52:02;;;;;;;11.45;1.33;;;10.90;92.60;;;;;;6253754;28;20043;-78
2021/12/29 04:55:07;;;;;;;9.82;1.48;;;11.00;92.50;;;;;;6253756;28;20144;-78
2021/12/29 04:58:09;;;;;;;11.70;1.67;;;10.90;92.60;;;;;;6252224;28;20055;-78
2021/12/29 05:01:11;;;;;;;5.03;1.50;;;10.90;92.70;;;;;;6253103;28;20391;-78
2021/12/29 05:04:20;;;;;;;4.82;0.77;;;10.90;92.80;;;;;;6256989;28;20121;-78
2021/12/29 05:10:42;;;;;;;6.03;0.93;;;10.90;93.00;;;;;;6254102;28;20470;-79
2021/12/29 05:13:46;;;;;;;11.85;1.45;;;10.90;93.00;;;;;;6257351;28;20045;-78
2021/12/29 05:16:47;;;;;;;13.07;1.55;;;10.90;93.00;;;;;;6257282;28;20069;-77
2021/12/29 05:19:49;;;;;;;13.90;1.27;;;10.90;93.00;;;;;;6256730;28;20041;-78
2021/12/29 05:22:51;;;;;;;7.63;0.90;;;10.90;93.00;;;;;;6253627;28;20056;-79
2021/12/29 05:25:56;;;;;;;11.77;1.90;;;10.90;93.00;;;;;;6251852;28;20042;-79
2021/12/29 05:28:58;;;;;;;9.52;1.20;;;10.80;93.10;;;;;;6248862;28;20052;-78
2021/12/29 05:32:00;;;;;;;8.40;1.42;;;10.80;93.20;;;;;;6248691;28;20042;-78
2021/12/29 05:35:02;;;;;;;14.00;1.65;;;10.80;93.20;;;;;;6249366;28;20065;-79
2021/12/29 05:38:05;;;;;;;12.82;1.40;;;10.80;93.30;;;;;;6248778;28;20053;-79
2021/12/29 05:41:08;;;;;;;13.95;1.73;;;10.80;93.30;;;;;;6249796;28;20072;-79
2021/12/29 05:44:10;;;;;;;5.93;0.57;;;10.80;93.20;;;;;;6249544;28;20474;-80
2021/12/29 05:47:12;;;;;;;8.93;0.98;;;10.80;93.20;;;;;;6250039;28;20059;-80
2021/12/29 05:50:17;;;;;;;9.60;1.10;;;10.80;93.10;;;;;;6249120;28;20596;-78
2021/12/29 05:53:19;;;;;;;10.73;1.27;;;10.80;93.10;;;;;;6249252;28;20042;-78
2021/12/29 05:56:22;;;;;;;11.23;2.22;;;10.80;93.10;;;;;;6248642;28;20041;-77
2021/12/29 05:59:24;;;;;;;4.88;0.82;;;10.90;93.00;;;;;;6248953;28;20431;-78
2021/12/29 06:02:26;;;;;;;4.70;0.93;;;10.80;92.80;;;;;;6248912;28;20042;-78
2021/12/29 06:05:27;;;;;;;10.80;1.02;;;10.80;92.90;;;;;;6258565;28;20178;-79
2021/12/29 06:08:29;;;;;;;6.57;0.70;;;10.90;92.90;;;;;;6273502;28;20048;-78
2021/12/29 06:11:32;;;;;;;4.55;0.90;;;10.90;92.50;;;;;;6273155;28;20388;-79
2021/12/29 06:14:34;;;;;;;5.20;1.00;;;10.90;92.30;;;;;;6273844;28;20049;-78
2021/12/29 06:17:36;;;;;;;5.00;1.50;;;11.00;92.40;;;;;;6272781;28;20433;-78
2021/12/29 06:20:39;;;;;;;8.73;1.05;;;11.00;92.30;;;;;;6273428;28;20055;-79
2021/12/29 06:23:40;;;;;;;9.13;1.63;;;11.00;92.30;;;;;;6273499;28;20128;-78
2021/12/29 06:26:44;;;;;;;6.57;1.30;;;11.10;92.20;;;;;;6273794;28;20105;-78
2021/12/29 06:29:46;;;;;;;7.30;1.27;;;11.20;92.10;;;;;;6272966;28;20551;-78
2021/12/29 06:32:48;;;;;;;7.70;1.13;;;11.20;92.20;;;;;;6272979;28;20183;-80
2021/12/29 06:35:49;;;;;;;9.65;1.38;;;11.20;92.30;;;;;;6271983;28;20037;-77
2021/12/29 06:38:51;;;;;;;9.98;2.70;;;11.30;92.70;;;;;;6272902;28;20056;-78
2021/12/29 06:41:54;;;;;;;8.18;0.88;;;11.40;92.00;;;;;;6272438;28;20051;-77
2021/12/29 06:44:57;;;;;;;8.20;0.95;;;11.30;92.00;;;;;;6272041;28;20045;-78
2021/12/29 06:47:59;;;;;;;5.03;0.77;;;11.30;92.10;;;;;;6272020;28;20041;-78
2021/12/29 06:51:00;;;;;;;3.75;0.82;;;11.20;92.00;;;;;;6272616;28;20048;-79
2021/12/29 06:54:02;;;;;;;3.08;0.68;;;11.00;92.20;;;;;;6271559;28;20049;-78
2021/12/29 06:57:06;;;;;;;1.75;0.40;;;10.90;92.10;;;;;;6271643;28;20048;-77
2021/12/29 07:00:09;;;;;;;2.75;0.73;;;10.70;92.20;;;;;;6271118;28;20414;-78
2021/12/29 07:03:11;;;;;;;2.53;0.77;;;10.70;92.50;;;;;;6271443;28;20645;-78
2021/12/29 07:06:13;;;;;;;3.03;0.80;;;10.60;92.60;;;;;;6261259;28;20041;-79
2021/12/29 07:09:15;;;;;;;2.67;0.65;;;10.70;92.60;;;;;;6245811;28;20053;-79
2021/12/29 07:12:19;;;;;;;1.48;0.30;;;10.60;92.50;;;;;;6246627;28;20048;-77
2021/12/29 07:15:21;;;;;;;2.92;0.52;;;10.60;92.50;;;;;;6246246;28;20060;-78
2021/12/29 07:18:23;;;;;;;0.63;0.32;;;10.50;92.60;;;;;;6246940;28;20049;-78
2021/12/29 07:21:24;;;;;;;3.10;0.30;;;10.50;92.80;;;;;;6246136;28;20049;-78
2021/12/29 07:24:26;;;;;;;1.73;0.70;;;10.50;92.90;;;;;;6245633;28;20195;-79
2021/12/29 07:27:30;;;;;;;1.35;0.30;;;10.40;93.00;;;;;;6246181;28;20053;-79
2021/12/29 07:30:32;;;;;;;2.42;0.17;;;10.40;92.80;;;;;;6246934;28;20059;-79
2021/12/29 07:33:34;;;;;;;8.77;1.48;;;10.40;93.10;;;;;;6246058;28;20173;-78
2021/12/29 07:36:36;;;;;;;2.92;0.70;;;10.40;93.00;;;;;;6245852;28;20045;-79
2021/12/29 07:39:38;;;;;;;3.60;0.73;;;10.50;93.00;;;;;;6245531;28;20469;-76
2021/12/29 07:42:43;;;;;;;5.82;0.60;;;10.50;92.90;;;;;;6247206;28;20179;-77
2021/12/29 07:45:45;;;;;;;5.32;0.70;;;10.50;93.00;;;;;;6246076;28;20434;-78
2021/12/29 07:48:47;;;;;;;4.65;0.70;;;10.60;92.90;;;;;;6246345;28;20045;-77
2021/12/29 07:51:49;;;;;;;3.10;0.65;;;10.70;92.80;;;;;;6245929;28;20406;-77
2021/12/29 07:54:50;;;;;;;7.15;1.15;;;10.70;92.60;;;;;;6259968;28;20414;-77
2021/12/29 07:57:54;;;;;;;3.28;0.80;;;10.70;92.60;;;;;;6270373;28;20545;-77
2021/12/29 08:00:55;;;;;;;2.28;0.40;;;10.80;92.40;;;;;;6270727;28;20132;-78
2021/12/29 08:03:57;;;;;;;2.70;0.50;;;10.80;92.30;;;;;;6270203;28;20119;-79
2021/12/29 08:06:59;;;;;;;6.97;1.30;;;10.90;92.10;;;;;;6262713;28;20127;-78
2021/12/29 08:10:01;;;;;;;4.05;0.70;;;10.90;92.10;;;;;;6268805;28;20049;-79
2021/12/29 08:13:06;;;;;;;2.63;0.63;;;10.90;92.00;;;;;;6270730;28;20037;-79
2021/12/29 08:16:08;;;;;;;5.47;1.20;;;10.90;92.00;;;;;;6269514;28;20060;-79
2021/12/29 08:19:09;;;;;;;4.57;1.15;;;11.00;92.00;;;;;;6270318;28;20528;-79
2021/12/29 08:22:12;;;;;;;5.55;1.25;;;10.90;91.80;;;;;;6269701;28;20052;-79
2021/12/29 08:25:14;;;;;;;2.97;0.55;;;11.10;91.90;;;;;;6269533;28;20048;-79
2021/12/29 08:28:17;;;;;;;5.43;0.85;;;11.20;91.90;;;;;;6270064;28;20045;-79
2021/12/29 08:31:19;;;;;;;6.38;0.70;;;11.30;91.50;;;;;;6270231;28;20053;-79
2021/12/29 08:34:21;;;;;;;7.25;0.90;;;11.40;91.50;;;;;;6269722;28;20127;-79
2021/12/29 08:37:23;;;;;;;6.43;0.90;;;11.50;91.60;;;;;;6269821;28;20554;-79
2021/12/29 08:40:26;;;;;;;12.93;1.10;;;11.60;91.30;;;;;;6269717;28;20041;-78
2021/12/29 08:43:30;;;;;;;7.28;1.33;;;11.60;90.90;;;;;;6270088;28;20056;-77
2021/12/29 08:46:32;;;;;;;5.28;0.80;;;11.60;90.70;;;;;;6270173;28;20053;-79
2021/12/29 08:49:34;;;;;;;7.55;1.17;;;11.70;90.70;;;;;;6269398;28;20052;-79
2021/12/29 08:52:37;;;;;;;1.60;0.80;;;11.70;91.00;;;;;;6271909;28;20075;-80
2021/12/29 08:55:46;;;;;;;5.82;1.15;;;11.90;90.70;;;;;;6273597;28;20055;-78
2021/12/29 08:58:50;;;;;;;3.05;0.60;;;11.90;90.50;;;;;;6274827;28;20075;-79
2021/12/29 09:01:52;;;;;;;3.63;0.85;;;12.00;90.60;;;;;;6274453;28;20053;-78
2021/12/29 09:04:54;;;;;;;2.63;0.63;;;12.00;90.30;;;;;;6262331;28;20045;-79
2021/12/29 09:07:56;;;;;;;3.60;0.75;;;12.00;90.10;;;;;;6249859;28;20191;-80
2021/12/29 09:10:58;;;;;;;8.13;1.20;;;12.10;90.20;;;;;;6267041;28;20051;-78
2021/12/29 09:14:01;;;;;;;4.68;1.23;;;12.20;90.20;;;;;;6273842;28;20049;-78
2021/12/29 09:17:03;;;;;;;6.00;2.00;;;12.20;89.50;;;;;;6273781;28;20055;-78
2021/12/29 09:20:13;;;;;;;8.48;1.55;;;12.10;89.20;;;;;;6270080;28;20045;-78
2021/12/29 09:23:16;;;;;;;8.57;1.90;;;12.10;88.70;;;;;;6279585;28;20052;-81
2021/12/29 09:26:18;;;;;;;6.65;1.13;;;12.10;88.90;;;;;;6276041;28;20490;-80
2021/12/29 09:29:21;;;;;;;12.10;1.65;;;12.10;88.30;;;;;;6277240;28;20041;-80
2021/12/29 09:32:23;;;;;;;13.32;1.77;;;12.10;88.00;;;;;;6277025;28;20128;-80
2021/12/29 09:35:25;;;;;;;6.22;1.20;;;12.20;88.10;;;;;;6275637;28;20481;-80
2021/12/29 09:38:27;;;;;;;13.57;1.80;;;12.20;88.10;;;;;;6275449;28;20492;-80
2021/12/29 09:41:31;;;;;;;8.50;1.33;;;12.20;87.50;;;;;;6274929;28;20044;-77
2021/12/29 09:44:34;;;;;;;5.07;1.13;;;12.20;87.30;;;;;;6274047;28;20507;-81
2021/12/29 09:47:37;;;;;;;4.28;1.15;;;12.30;87.20;;;;;;6276438;28;20064;-80
2021/12/29 09:50:39;;;;;;;11.98;1.58;;;12.30;87.10;;;;;;6274256;28;20044;-79
2021/12/29 09:53:42;;;;;;;12.88;1.25;;;12.30;87.10;;;;;;6276160;28;20056;-81
2021/12/29 09:56:43;;;;;;;4.35;1.33;;;12.30;86.80;;;;;;6276522;28;20064;-81
2021/12/29 09:59:47;;;;;;;6.07;0.95;;;12.30;86.50;;;;;;6276214;28;20473;-80
2021/12/29 10:02:50;;;;;;;4.22;1.50;;;12.40;86.50;;;;;;6275538;28;20060;-79
2021/12/29 10:05:55;;;;;;;6.28;1.20;;;12.40;86.30;;;;;;6275051;28;20051;-82
2021/12/29 10:08:57;;;;;;;9.57;1.20;;;12.50;86.00;;;;;;6277192;28;20045;-80
2021/12/29 10:12:08;;;;;;;9.52;1.38;;;12.60;86.20;;;;;;6252083;28;20049;-81
2021/12/29 10:15:11;;;;;;;9.35;1.63;;;12.50;85.70;;;;;;6249043;28;20042;-79
2021/12/29 10:18:15;;;;;;;8.57;1.88;;;12.40;86.20;;;;;;6249098;28;20128;-78
2021/12/29 10:21:19;;;;;;;3.28;1.10;;;12.40;86.50;;;;;;6270464;28;20469;-81
2021/12/29 10:24:22;;;;;;;12.77;1.83;;;12.30;86.80;;;;;;6275306;28;20045;-80
2021/12/29 10:27:24;;;;;;;5.07;1.42;;;12.30;87.00;;;;;;6275939;28;20049;-81
2021/12/29 10:30:29;;;;;;;4.18;1.30;;;12.40;86.70;;;;;;6276220;28;20049;-81
2021/12/29 10:33:34;;;;;;;5.55;1.17;;;12.30;86.80;;;;;;6274342;28;20130;-80
2021/12/29 10:36:42;;;;;;;11.70;1.90;;;12.40;86.30;;;;;;6272739;28;20183;-79
2021/12/29 10:39:47;;;;;;;8.10;1.52;;;12.40;86.00;;;;;;6274483;28;20076;-80
2021/12/29 10:42:54;;;;;;;8.60;1.67;;;12.40;86.00;;;;;;6274670;28;20126;-80
2021/12/29 10:45:59;;;;;;;4.80;0.90;;;12.40;85.80;;;;;;6272034;28;20226;-78
2021/12/29 10:49:02;;;;;;;5.57;1.80;;;12.40;86.10;;;;;;6273283;28;20479;-79
2021/12/29 10:52:04;;;;;;;5.05;1.30;;;12.40;85.80;;;;;;6271548;28;20509;-78
2021/12/29 10:55:09;;;;;;;3.97;1.20;;;12.40;85.80;;;;;;6272407;28;20049;-79
2021/12/29 10:58:14;;;;;;;7.80;1.30;;;12.50;86.40;;;;;;6271804;28;20170;-79
2021/12/29 11:01:18;;;;;;;12.18;1.85;;;12.60;86.60;;;;;;6271872;28;20072;-79
2021/12/29 11:04:21;;;;;;;12.23;1.85;;;12.70;86.40;;;;;;6271647;28;20073;-80
2021/12/29 11:07:28;;;;;;;7.88;1.45;;;12.70;86.10;;;;;;6272021;28;20052;-80
2021/12/29 11:10:30;;;;;;;6.90;1.15;;;12.80;85.60;;;;;;6271532;28;20063;-78
2021/12/29 11:13:32;;;;;;;11.55;2.10;;;12.80;85.60;;;;;;6271098;28;20675;-78
2021/12/29 11:16:36;;;;;;;6.97;1.38;;;12.80;85.00;;;;;;6270297;28;20384;-80
2021/12/29 11:19:44;;;;;;;6.95;1.60;;;12.70;84.90;;;;;;6260012;28;20083;-80
2021/12/29 11:22:47;;;;;;;9.52;1.30;;;12.70;84.80;;;;;;6272772;28;20053;-82
2021/12/29 11:25:51;;;;;;;9.48;1.23;;;12.70;85.00;;;;;;6274340;28;20056;-79
2021/12/29 11:28:54;;;;;;;8.75;1.23;;;12.70;85.00;;;;;;6279445;28;20052;-80
2021/12/29 11:32:01;;;;;;;5.22;1.17;;;12.70;84.80;;;;;;6276257;28;20452;-80
2021/12/29 11:35:09;;;;;;;6.70;1.50;;;12.70;84.20;;;;;;6274217;28;20049;-80
2021/12/29 11:38:12;;;;;;;11.63;1.63;;;12.70;84.20;;;;;;6275705;28;20041;-80
2021/12/29 11:41:17;;;;;;;14.52;1.40;;;12.80;84.40;;;;;;6275106;28;20037;-80
2021/12/29 11:44:19;;;;;;;6.72;2.05;;;12.80;84.40;;;;;;6275087;28;20044;-81
2021/12/29 11:47:22;;;;;;;6.72;1.92;;;12.80;84.60;;;;;;6275008;28;20179;-80
2021/12/29 11:50:27;;;;;;;8.10;1.42;;;12.80;84.60;;;;;;6275294;28;20092;-80
2021/12/29 11:53:34;;;;;;;6.63;1.45;;;12.90;84.20;;;;;;6274496;28;20417;-79
2021/12/29 11:56:41;;;;;;;13.32;1.92;;;13.00;84.30;;;;;;6274615;28;20045;-81
2021/12/29 11:59:43;;;;;;;11.25;1.67;;;13.00;83.70;;;;;;6274085;28;20041;-79
2021/12/29 12:02:48;;;;;;;12.30;2.00;;;13.10;83.70;;;;;;6275331;28;20128;-80
2021/12/29 12:05:50;;;;;;;8.95;1.92;;;13.10;83.20;;;;;;6273483;28;20131;-80
2021/12/29 12:09:12;;;;;;;10.98;1.30;;;13.10;83.40;;;;;;6273996;28;20526;-80
2021/12/29 12:12:14;;;;;;;13.90;1.42;;;13.00;83.60;;;;;;6263076;28;20072;-79
2021/12/29 12:15:16;;;;;;;5.35;1.20;;;13.00;83.80;;;;;;6280460;28;20044;-80
2021/12/29 12:18:20;;;;;;;19.98;3.72;;;13.00;83.40;;;;;;6283065;28;20091;-79
2021/12/29 12:21:29;;;;;;;15.15;1.33;;;12.90;84.60;;;;;;6273779;28;20049;-80
2021/12/29 12:24:32;;;;;;;7.38;1.42;;;12.90;84.30;;;;;;6274000;28;20064;-80
2021/12/29 12:27:37;;;;;;;6.65;1.10;;;12.80;84.80;;;;;;6278611;28;20134;-80
2021/12/29 12:30:43;;;;;;;6.35;1.30;;;12.80;85.70;;;;;;6280119;28;20056;-80
2021/12/29 12:33:47;;;;;;;11.88;1.70;;;12.80;86.80;;;;;;6278002;28;20049;-79
2021/12/29 12:36:49;;;;;;;8.80;1.25;;;12.70;87.10;;;;;;6277879;28;20059;-82
2021/12/29 12:40:02;;;;;;;10.30;1.48;;;12.60;87.80;;;;;;6280914;28;20535;-81
2021/12/29 12:43:10;;;;;;;5.28;1.17;;;12.60;88.60;;;;;;6278884;28;20092;-81
2021/12/29 12:46:12;;;;;;;10.85;1.02;;;12.40;89.10;;;;;;6277242;28;20041;-80
2021/12/29 12:49:20;;;;;;;2.13;1.13;;;12.30;90.00;;;;;;6277688;28;20051;-80
2021/12/29 12:52:23;;;;;;;;;;;12.20;90.20;;;;;;6278011;28;20052;-82
2021/12/29 12:55:27;;;;;;;2.17;0.70;;;12.10;90.60;;;;;;6278104;28;19921;-81
2021/12/29 12:58:30;;;;;;;8.93;0.95;;;12.00;90.50;;;;;;6279358;28;20080;-79
2021/12/29 13:01:33;;;;;;;4.47;1.27;;;11.90;90.80;;;;;;6277104;28;20119;-79
2021/12/29 13:04:42;;;;;;;2.25;1.00;;;11.80;91.30;;;;;;6276477;28;20048;-80
2021/12/29 13:07:51;;;;;;;5.15;0.80;;;11.80;91.40;;;;;;6277038;28;20434;-81
2021/12/29 13:10:56;;;;;;;8.38;1.38;;;11.80;91.60;;;;;;6278692;28;20414;-81
2021/12/29 13:13:58;;;;;;;2.78;0.70;;;12.00;91.90;;;;;;6269606;28;20491;-82
2021/12/29 13:17:00;;;;;;;5.97;0.88;;;12.10;91.60;;;;;;6271616;28;20057;-80
2021/12/29 13:20:05;;;;;;;1.80;0.63;;;12.10;91.50;;;;;;6277847;28;20091;-80
2021/12/29 13:23:09;;;;;;;1.15;0.75;;;12.00;91.30;;;;;;6279162;28;20055;-80
2021/12/29 13:26:11;;;;;;;5.30;0.57;;;12.00;91.40;;;;;;6278008;28;20130;-80
2021/12/29 13:29:19;;;;;;;4.78;0.52;;;11.90;91.50;;;;;;6276605;28;20049;-79
2021/12/29 13:32:20;;;;;;;2.15;0.70;;;11.80;91.50;;;;;;6276030;28;20868;-79
2021/12/29 13:35:26;;;;;;;5.32;0.95;;;11.80;91.60;;;;;;6276308;28;20053;-79
2021/12/29 13:38:31;;;;;;;4.20;0.85;;;11.70;91.60;;;;;;6276074;28;20049;-80
2021/12/29 13:41:36;;;;;;;3.17;0.90;;;11.70;91.80;;;;;;6275923;28;20053;-80
2021/12/29 13:44:39;;;;;;;1.95;0.75;;;11.60;91.90;;;;;;6276236;28;20075;-80
2021/12/29 13:47:40;;;;;;;3.63;0.60;;;11.60;91.90;;;;;;6277635;28;20049;-80
2021/12/29 13:50:55;;;;;;;2.78;0.28;;;11.70;91.80;;;;;;6276068;28;20091;-80
2021/12/29 13:53:59;;;;;;;4.38;0.70;;;11.70;91.70;;;;;;6276219;28;20045;-81
2021/12/29 13:57:01;;;;;;;6.65;0.90;;;11.60;91.80;;;;;;6273975;28;20083;-80
2021/12/29 14:00:03;;;;;;;5.95;1.23;;;11.70;91.70;;;;;;6274511;28;20157;-81
2021/12/29 14:03:06;;;;;;;2.78;1.35;;;11.70;91.50;;;;;;6276834;28;20133;-80
2021/12/29 14:06:09;;;;;;;3.22;0.73;;;11.80;91.60;;;;;;6276121;28;20052;-81
2021/12/29 14:09:12;;;;;;;6.53;2.10;;;11.80;91.40;;;;;;6275641;28;20047;-81
2021/12/29 14:12:16;;;;;;;64.05;35.67;;;11.80;91.40;;;;;;6275415;28;20045;-81
2021/12/29 14:15:21;;;;;;;14.30;10.27;;;11.90;91.30;;;;;;6251648;28;20054;-81
2021/12/29 14:18:24;;;;;;;7.32;4.93;;;11.90;91.30;;;;;;6251988;28;20496;-81
2021/12/29 14:21:30;;;;;;;5.68;3.70;;;12.00;91.10;;;;;;6274034;28;20132;-81
2021/12/29 14:24:38;;;;;;;8.10;4.85;;;12.00;91.10;;;;;;6273691;28;20491;-81
2021/12/29 14:27:48;;;;;;;33.85;18.08;;;12.00;91.00;;;;;;6275055;28;20056;-81
2021/12/29 14:31:04;;;;;;;23.75;9.77;;;12.00;90.70;;;;;;6275811;28;20052;-82
2021/12/29 14:34:07;;;;;;;5.95;2.42;;;12.00;90.80;;;;;;6274490;28;20056;-82
2021/12/29 14:37:13;;;;;;;25.13;13.20;;;12.00;90.80;;;;;;6274826;28;20481;-81
2021/12/29 14:40:26;;;;;;;13.13;5.55;;;12.00;91.20;;;;;;6275045;28;20113;-81
2021/12/29 14:43:28;;;;;;;35.10;13.07;;;12.00;90.80;;;;;;6276196;28;20056;-81
2021/12/29 14:46:30;;;;;;;5.53;2.25;;;11.90;90.60;;;;;;6275372;28;20053;-81
2021/12/29 14:49:33;;;;;;;8.70;2.83;;;11.90;90.70;;;;;;6274053;28;20041;-82
2021/12/29 14:52:43;;;;;;;34.22;11.57;;;11.90;90.70;;;;;;6275505;28;20118;-82
2021/12/29 14:55:45;;;;;;;21.17;8.32;;;11.80;90.60;;;;;;6274835;28;20040;-82
2021/12/29 14:58:46;;;;;;;58.92;18.65;;;11.80;90.70;;;;;;6274691;28;20044;-81
2021/12/29 15:01:48;;;;;;;88.95;32.00;;;11.80;90.80;;;;;;6273916;28;20440;-82
2021/12/29 15:05:00;;;;;;;15.80;5.13;;;11.80;90.90;;;;;;6275455;28;20160;-81
2021/12/29 15:08:05;;;;;;;34.30;12.35;;;11.80;90.80;;;;;;6274909;28;20048;-80
2021/12/29 15:11:09;;;;;;;9.48;3.08;;;11.80;90.80;;;;;;6274975;28;20051;-79
2021/12/29 15:14:15;;;;;;;6.70;2.10;;;11.80;90.80;;;;;;6271000;28;20045;-82
2021/12/29 15:17:16;;;;;;;4.97;1.83;;;11.80;90.90;;;;;;6268987;28;20079;-81
2021/12/29 15:20:18;;;;;;;4.43;1.25;;;11.70;90.80;;;;;;6274545;28;20051;-81
2021/12/29 15:23:23;;;;;;;4.60;1.23;;;11.80;90.80;;;;;;6275255;28;20142;-80
2021/12/29 15:26:26;;;;;;;8.25;2.45;;;11.80;90.90;;;;;;6273256;28;20419;-81
2021/12/29 15:29:29;;;;;;;9.45;2.75;;;11.80;90.90;;;;;;6274543;28;20178;-81
2021/12/29 15:32:31;;;;;;;2.05;1.02;;;11.80;91.00;;;;;;6273223;28;20041;-80
2021/12/29 15:35:34;;;;;;;5.20;1.13;;;11.80;91.00;;;;;;6269714;28;20069;-80
2021/12/29 15:38:37;;;;;;;4.72;1.35;;;11.80;91.10;;;;;;6249064;28;20076;-80
2021/12/29 15:41:39;;;;;;;3.28;0.60;;;11.80;91.10;;;;;;6256711;28;20041;-80
2021/12/29 15:44:40;;;;;;;4.75;1.48;;;11.80;91.30;;;;;;6272664;28;20052;-81
2021/12/29 15:47:42;;;;;;;5.32;0.88;;;11.80;91.20;;;;;;6274593;28;20059;-81
2021/12/29 15:50:46;;;;;;;3.10;0.73;;;11.80;91.30;;;;;;6277220;28;20132;-80
2021/12/29 15:53:49;;;;;;;5.43;2.53;;;11.70;91.40;;;;;;6251786;28;20084;-80